createdAt,value
2022-10-25T00:04:40.087Z,20.46
2022-10-25T00:09:43.172Z,20.96
2022-10-25T00:14:46.310Z,23.24
2022-10-25T00:19:49.292Z,23.31
2022-10-25T00:24:52.894Z,21.71
2022-10-25T00:29:55.754Z,20.71
2022-10-25T00:34:58.607Z,21.10
2022-10-25T00:40:01.791Z,23.18
2022-10-25T00:45:28.629Z,22.74
2022-10-25T00:50:40.080Z,21.27
2022-10-25T00:55:47.051Z,20.42
2022-10-25T01:00:50.605Z,20.94
2022-10-25T01:05:54.118Z,23.20
2022-10-25T01:10:57.118Z,22.74
2022-10-25T01:16:12.562Z,21.32
2022-10-25T01:21:18.410Z,20.42
2022-10-25T01:26:40.129Z,20.98
2022-10-25T01:31:50.687Z,23.19
2022-10-25T01:37:08.086Z,22.70
2022-10-25T01:42:38.905Z,21.23
2022-10-25T01:47:50.270Z,20.29
2022-10-25T01:58:03.310Z,23.05
2022-10-25T02:03:38.006Z,22.82
2022-10-25T02:08:52.063Z,21.25
2022-10-25T02:14:13.564Z,20.35
2022-10-25T02:19:22.691Z,21.16
2022-10-25T02:24:28.734Z,23.44
2022-10-25T02:29:34.315Z,22.34
2022-10-25T02:34:37.267Z,21.02
2022-10-25T02:39:40.424Z,20.18
2022-10-25T02:44:43.331Z,20.81
2022-10-25T02:49:46.278Z,23.20
2022-10-25T02:54:49.182Z,22.35
2022-10-25T02:59:52.098Z,20.91
2022-10-25T03:04:55.132Z,20.03
2022-10-25T03:09:58.014Z,20.76
2022-10-25T03:15:00.924Z,23.12
2022-10-25T03:20:04.493Z,22.13
2022-10-25T03:30:13.805Z,19.95
2022-10-25T03:35:16.732Z,20.67
2022-10-25T03:40:20.610Z,22.94
2022-10-25T03:45:23.850Z,21.82
2022-10-25T03:50:26.936Z,20.49
2022-10-25T03:55:29.785Z,19.66
2022-10-25T04:00:32.795Z,20.40
2022-10-25T04:05:36.098Z,22.85
2022-10-25T04:10:39.061Z,22.14
2022-10-25T04:15:42.082Z,20.71
2022-10-25T04:20:45.094Z,19.80
2022-10-25T04:25:48.227Z,20.44
2022-10-25T04:30:51.197Z,22.81
2022-10-25T04:35:57.730Z,21.85
2022-10-25T04:41:01.263Z,20.53
2022-10-25T04:46:04.498Z,19.70
2022-10-25T04:51:08.769Z,20.41
2022-10-25T04:56:14.522Z,22.78
2022-10-25T05:01:18.798Z,21.75
2022-10-25T05:06:25.540Z,20.48
2022-10-25T05:11:28.488Z,19.64
2022-10-25T05:16:34.709Z,19.00
2022-10-25T05:21:38.210Z,19.88
2022-10-25T05:26:41.163Z,22.50
2022-10-25T05:31:44.133Z,21.90
2022-10-25T05:36:47.024Z,20.47
2022-10-25T05:41:50.186Z,19.59
2022-10-25T05:46:53.413Z,18.96
2022-10-25T05:51:56.306Z,19.89
2022-10-25T05:56:59.187Z,22.34
2022-10-25T06:02:02.523Z,21.31
2022-10-25T06:07:07.518Z,19.87
2022-10-25T06:12:10.474Z,19.01
2022-10-25T06:17:14.007Z,19.83
2022-10-25T06:22:17.017Z,22.28
2022-10-25T06:27:19.827Z,21.32
2022-10-25T06:32:22.724Z,19.95
2022-10-25T06:37:25.660Z,19.10
2022-10-25T06:42:28.710Z,19.78
2022-10-25T06:47:31.799Z,22.16
2022-10-25T06:52:34.717Z,21.07
2022-10-25T06:57:37.629Z,19.78
2022-10-25T07:02:40.516Z,18.98
2022-10-25T07:07:43.578Z,19.80
2022-10-25T07:12:46.608Z,22.28
2022-10-25T07:17:49.824Z,21.36
2022-10-25T07:22:56.551Z,20.01
2022-10-25T07:28:02.365Z,19.19
2022-10-25T07:33:05.244Z,20.01
2022-10-25T07:38:08.116Z,22.37
2022-10-25T07:43:11.182Z,21.27
2022-10-25T07:48:14.065Z,20.11
2022-10-25T07:53:17.148Z,19.44
2022-10-25T07:58:20.591Z,19.00
2022-10-25T08:03:23.482Z,20.08
2022-10-25T08:08:27.452Z,22.65
2022-10-25T08:13:30.355Z,21.72
2022-10-25T08:18:34.244Z,20.45
2022-10-25T08:23:38.165Z,19.67
2022-10-25T08:28:41.233Z,19.20
2022-10-25T08:33:44.101Z,20.30
2022-10-25T08:38:47.400Z,22.83
2022-10-25T08:44:11.464Z,21.89
2022-10-25T08:49:58.971Z,20.76
2022-10-25T08:55:06.035Z,20.02
2022-10-25T09:00:17.550Z,19.54
2022-10-25T09:05:43.232Z,19.23
2022-10-25T09:10:55.698Z,20.60
2022-10-25T09:16:19.708Z,22.48
2022-10-25T09:21:23.110Z,21.15
2022-10-25T09:26:39.069Z,20.36
2022-10-25T09:31:48.652Z,19.83
2022-10-25T09:36:59.233Z,19.53
2022-10-25T09:42:03.466Z,19.25
2022-10-25T09:47:17.597Z,19.11
2022-10-25T09:52:44.698Z,21.80
2022-10-25T09:57:47.836Z,22.07
2022-10-25T10:02:51.052Z,20.62
2022-10-25T10:07:54.863Z,19.66
2022-10-25T10:13:12.952Z,19.06
2022-10-25T10:18:23.162Z,18.64
2022-10-25T10:23:32.755Z,19.73
2022-10-25T10:28:36.305Z,22.09
2022-10-25T10:33:39.613Z,20.86
2022-10-25T10:38:42.487Z,19.76
2022-10-25T10:43:45.423Z,19.15
2022-10-25T10:48:55.080Z,18.72
2022-10-25T10:53:58.601Z,19.85
2022-10-25T10:59:01.579Z,22.48
2022-10-25T11:04:04.691Z,21.64
2022-10-25T11:09:12.908Z,20.41
2022-10-25T11:14:17.961Z,19.68
2022-10-25T11:19:20.839Z,19.16
2022-10-25T11:25:00.893Z,20.14
2022-10-25T11:30:16.152Z,22.74
2022-10-25T11:35:38.191Z,21.56
2022-10-25T11:40:46.639Z,20.44
2022-10-25T11:45:58.671Z,19.80
2022-10-25T11:51:41.312Z,19.42
2022-10-25T11:57:14.963Z,20.96
2022-10-25T12:02:45.687Z,22.63
2022-10-25T12:07:54.766Z,21.23
2022-10-25T12:13:16.771Z,20.43
2022-10-25T12:18:26.182Z,19.94
2022-10-25T12:23:36.914Z,19.58
2022-10-25T12:28:49.871Z,19.34
2022-10-25T12:34:02.414Z,20.57
2022-10-25T12:39:18.348Z,22.68
2022-10-25T12:44:58.918Z,21.54
2022-10-25T12:50:30.031Z,20.77
2022-10-25T12:56:06.722Z,20.37
2022-10-25T13:01:38.262Z,20.07
2022-10-25T13:06:47.124Z,19.75
2022-10-25T13:11:59.612Z,19.47
2022-10-25T13:17:18.330Z,19.26
2022-10-25T13:22:46.790Z,19.13
2022-10-25T13:28:11.209Z,19.03
2022-10-25T13:33:22.685Z,20.46
2022-10-25T13:38:34.191Z,22.50
2022-10-25T13:43:56.868Z,21.44
2022-10-25T13:49:01.558Z,20.76
2022-10-25T13:54:08.426Z,20.31
2022-10-25T13:59:58.972Z,19.96
2022-10-25T14:05:02.155Z,19.69
2022-10-25T14:10:13.692Z,19.49
2022-10-25T14:15:39.804Z,19.30
2022-10-25T14:20:47.183Z,19.19
2022-10-25T14:26:01.347Z,20.43
2022-10-25T14:31:11.985Z,22.49
2022-10-25T14:36:29.883Z,21.41
2022-10-25T14:41:35.498Z,20.71
2022-10-25T14:46:44.782Z,20.33
2022-10-25T14:51:50.281Z,20.08
2022-10-25T14:57:02.824Z,19.78
2022-10-25T15:02:28.617Z,19.55
2022-10-25T15:07:31.393Z,20.78
2022-10-25T15:12:35.084Z,23.33
2022-10-25T15:17:38.295Z,22.66
2022-10-25T15:22:44.219Z,21.53
2022-10-25T15:27:48.039Z,20.88
2022-10-25T15:32:51.102Z,20.37
2022-10-25T15:37:55.895Z,19.95
2022-10-25T15:42:59.088Z,19.58
2022-10-25T15:48:14.598Z,19.29
2022-10-25T15:53:17.747Z,20.46
2022-10-25T15:58:20.704Z,22.42
2022-10-25T16:03:25.058Z,21.23
2022-10-25T16:08:28.184Z,20.41
2022-10-25T16:13:38.049Z,19.89
2022-10-25T16:18:41.005Z,19.45
2022-10-25T16:23:43.931Z,19.13
2022-10-25T16:28:46.898Z,18.88
2022-10-25T16:33:50.129Z,18.68
2022-10-25T16:38:53.111Z,18.53
2022-10-25T16:43:58.258Z,19.74
2022-10-25T16:49:02.239Z,21.79
2022-10-25T16:54:06.614Z,20.70
2022-10-25T16:59:09.557Z,19.98
2022-10-25T17:04:14.706Z,19.56
2022-10-25T17:09:18.313Z,19.21
2022-10-25T17:14:21.293Z,18.92
2022-10-25T17:19:25.981Z,18.65
2022-10-25T17:24:33.099Z,18.42
2022-10-25T17:29:36.098Z,19.52
2022-10-25T17:34:41.107Z,22.24
2022-10-25T17:39:44.553Z,21.49
2022-10-25T17:44:47.920Z,20.37
2022-10-25T17:49:51.163Z,19.70
2022-10-25T17:54:54.171Z,19.22
2022-10-25T17:59:58.193Z,18.78
2022-10-25T18:05:21.914Z,18.40
2022-10-25T18:10:25.316Z,18.09
2022-10-25T18:15:29.360Z,17.86
2022-10-25T18:20:32.464Z,17.69
2022-10-25T18:25:36.268Z,18.82
2022-10-25T18:30:39.216Z,21.70
2022-10-25T18:35:42.366Z,21.03
2022-10-25T18:40:45.461Z,19.80
2022-10-25T18:45:48.415Z,19.14
2022-10-25T18:50:51.379Z,18.70
2022-10-25T18:55:54.671Z,18.33
2022-10-25T19:00:58.382Z,18.00
2022-10-25T19:06:01.969Z,17.72
2022-10-25T19:11:07.375Z,17.51
2022-10-25T19:16:10.403Z,17.33
2022-10-25T19:21:17.138Z,17.20
2022-10-25T19:26:21.149Z,18.42
2022-10-25T19:31:24.385Z,21.21
2022-10-25T19:36:27.787Z,20.35
2022-10-25T19:41:30.769Z,19.31
2022-10-25T19:46:34.081Z,18.73
2022-10-25T19:51:37.064Z,18.30
2022-10-25T19:56:40.165Z,17.97
2022-10-25T20:01:46.103Z,17.68
2022-10-25T20:06:49.317Z,17.41
2022-10-25T20:11:52.441Z,17.18
2022-10-25T20:16:55.341Z,16.99
2022-10-25T20:21:58.353Z,18.20
2022-10-25T20:27:02.202Z,21.00
2022-10-25T20:32:05.404Z,20.17
2022-10-25T20:37:10.234Z,19.05
2022-10-25T20:42:13.076Z,18.48
2022-10-25T20:47:16.568Z,18.07
2022-10-25T20:52:19.498Z,17.72
2022-10-25T20:57:22.459Z,17.42
2022-10-25T21:02:25.837Z,17.17
2022-10-25T21:07:32.222Z,16.97
2022-10-25T21:12:35.422Z,16.78
2022-10-25T21:17:38.433Z,17.86
2022-10-25T21:22:42.588Z,20.74
2022-10-25T21:27:45.852Z,20.11
2022-10-25T21:32:49.387Z,18.89
2022-10-25T21:37:52.461Z,18.23
2022-10-25T21:42:57.952Z,17.78
2022-10-25T21:48:00.846Z,17.40
2022-10-25T21:53:03.796Z,17.07
2022-10-25T21:58:06.700Z,16.78
2022-10-25T22:03:09.782Z,16.53
2022-10-25T22:08:13.216Z,16.35
2022-10-25T22:13:16.089Z,17.53
2022-10-25T22:18:19.043Z,20.39
2022-10-25T22:23:22.694Z,19.59
2022-10-25T22:28:25.680Z,18.43
2022-10-25T22:33:29.962Z,17.78
2022-10-25T22:38:33.447Z,17.31
2022-10-25T22:43:37.151Z,16.92
2022-10-25T22:48:41.622Z,16.55
2022-10-25T22:53:44.734Z,16.27
2022-10-25T22:58:50.579Z,17.39
2022-10-25T23:03:56.163Z,20.27
2022-10-25T23:09:00.134Z,19.52
2022-10-25T23:14:05.290Z,18.31
2022-10-25T23:19:08.294Z,17.63
2022-10-25T23:24:11.391Z,17.12
2022-10-25T23:29:14.249Z,16.72
2022-10-25T23:34:17.181Z,16.37
2022-10-25T23:39:20.111Z,16.07
2022-10-25T23:44:24.432Z,17.16
2022-10-25T23:49:27.343Z,20.03
2022-10-25T23:54:30.716Z,19.24
2022-10-25T23:59:33.641Z,18.06
